Time;durP1;ratioP1;P1;durP2;ratioP2;P2;SDS_P1;SDS_P2;PMS_P1;PMS_P2;Temp;Humidity;BMP_temperature;BMP_pressure;BME280_temperature;BME280_humidity;BME280_pressure;Samples;Min_cycle;Max_cycle;Signal;HPM_P1;HPM_P2
2023/10/03 00:00:22;;;;;;;36.05;17.60;;;;;;;;;;5025796;28;20670;-70
2023/10/03 00:02:51;;;;;;;32.50;16.88;;;;;;;;;;5024010;28;20136;-69
2023/10/03 00:05:21;;;;;;;31.25;15.98;;;;;;;;;;5025008;28;20100;-70
2023/10/03 00:07:51;;;;;;;31.90;16.23;;;;;;;;;;5025471;28;20058;-70
2023/10/03 00:10:18;;;;;;;38.45;16.30;;;;;;;;;;5020523;28;21053;-70
2023/10/03 00:12:48;;;;;;;36.10;16.13;;;;;;;;;;5019378;28;20069;-69
2023/10/03 00:15:16;;;;;;;31.88;15.75;;;;;;;;;;5024782;28;20054;-69
2023/10/03 00:17:44;;;;;;;34.50;16.42;;;;;;;;;;5024964;28;20054;-69
2023/10/03 00:20:12;;;;;;;34.58;16.77;;;;;;;;;;5024668;28;20054;-69
2023/10/03 00:22:39;;;;;;;36.40;17.65;;;;;;;;;;5024388;28;20257;-70
2023/10/03 00:25:07;;;;;;;40.28;17.95;;;;;;;;;;5025192;28;20050;-69
2023/10/03 00:27:36;;;;;;;33.88;16.67;;;;;;;;;;5022938;28;20053;-70
2023/10/03 00:30:05;;;;;;;31.92;16.70;;;;;;;;;;5022616;28;20058;-69
2023/10/03 00:32:32;;;;;;;37.33;17.27;;;;;;;;;;5023138;28;20054;-70
2023/10/03 00:34:59;;;;;;;38.35;17.88;;;;;;;;;;5022603;28;20058;-70
2023/10/03 00:37:25;;;;;;;32.95;16.48;;;;;;;;;;5020156;28;20515;-69
2023/10/03 00:39:52;;;;;;;34.92;17.50;;;;;;;;;;5019898;28;20583;-69
2023/10/03 00:42:19;;;;;;;33.25;16.83;;;;;;;;;;5019803;28;20157;-69
2023/10/03 00:44:47;;;;;;;32.75;16.23;;;;;;;;;;5019997;28;20112;-69
2023/10/03 00:47:14;;;;;;;34.75;16.60;;;;;;;;;;5029256;28;20074;-70
2023/10/03 00:49:43;;;;;;;33.10;16.90;;;;;;;;;;5028393;28;21783;-70
2023/10/03 00:52:10;;;;;;;33.53;16.52;;;;;;;;;;5023244;28;20053;-69
2023/10/03 00:54:36;;;;;;;38.22;17.40;;;;;;;;;;5025206;28;20050;-70
2023/10/03 00:57:04;;;;;;;33.00;16.65;;;;;;;;;;5023830;28;20058;-69
2023/10/03 00:59:33;;;;;;;35.60;17.20;;;;;;;;;;5023247;28;20077;-69
2023/10/03 01:02:02;;;;;;;36.45;17.70;;;;;;;;;;5022124;28;20057;-70
2023/10/03 01:04:30;;;;;;;35.17;17.10;;;;;;;;;;5022700;28;20053;-70
2023/10/03 01:06:59;;;;;;;36.30;17.00;;;;;;;;;;5024352;28;20116;-70
2023/10/03 01:09:28;;;;;;;34.92;17.23;;;;;;;;;;5024259;28;20054;-70
2023/10/03 01:11:56;;;;;;;34.67;17.33;;;;;;;;;;5023829;28;20057;-69
2023/10/03 01:14:23;;;;;;;34.50;16.75;;;;;;;;;;5023836;28;20050;-70
2023/10/03 01:16:50;;;;;;;41.22;17.02;;;;;;;;;;5024808;28;20550;-70
2023/10/03 01:19:29;;;;;;;33.42;15.93;;;;;;;;;;5025935;28;20525;-70
2023/10/03 01:21:56;;;;;;;31.65;15.88;;;;;;;;;;5025400;28;20497;-70
2023/10/03 01:24:26;;;;;;;34.47;17.38;;;;;;;;;;5025311;28;20071;-69
2023/10/03 01:26:53;;;;;;;38.15;16.88;;;;;;;;;;5023814;28;20050;-69
2023/10/03 01:29:20;;;;;;;36.60;17.02;;;;;;;;;;5023386;28;20062;-70
2023/10/03 01:31:47;;;;;;;36.47;17.20;;;;;;;;;;5024579;28;20129;-70
2023/10/03 01:34:15;;;;;;;35.38;17.95;;;;;;;;;;5023332;28;20541;-70
2023/10/03 01:36:42;;;;;;;33.63;16.88;;;;;;;;;;5024475;28;20537;-70
2023/10/03 01:39:11;;;;;;;35.60;16.55;;;;;;;;;;5023131;28;20053;-70
2023/10/03 01:41:38;;;;;;;38.72;16.40;;;;;;;;;;5023359;28;20061;-70
2023/10/03 01:44:04;;;;;;;31.35;16.45;;;;;;;;;;5024309;28;20050;-70
2023/10/03 01:46:30;;;;;;;29.88;16.17;;;;;;;;;;5023043;28;20112;-70
2023/10/03 01:48:57;;;;;;;31.77;16.25;;;;;;;;;;5023329;28;20058;-69
2023/10/03 01:51:23;;;;;;;34.20;17.60;;;;;;;;;;5027462;28;20053;-69
2023/10/03 01:53:50;;;;;;;34.08;16.00;;;;;;;;;;5023209;28;20497;-70
2023/10/03 01:56:16;;;;;;;33.05;15.27;;;;;;;;;;5024696;28;20053;-70
2023/10/03 01:58:43;;;;;;;39.60;17.63;;;;;;;;;;5023670;28;20050;-69
2023/10/03 02:01:09;;;;;;;34.75;15.80;;;;;;;;;;5024211;28;20578;-69
2023/10/03 02:03:36;;;;;;;35.38;16.55;;;;;;;;;;5023461;28;20573;-70
2023/10/03 02:06:06;;;;;;;32.17;15.23;;;;;;;;;;5024099;28;20493;-70
2023/10/03 02:08:33;;;;;;;38.22;16.35;;;;;;;;;;5023096;28;20060;-70
2023/10/03 02:11:00;;;;;;;34.22;16.83;;;;;;;;;;5023208;28;20551;-70
2023/10/03 02:13:27;;;;;;;34.33;15.30;;;;;;;;;;5023268;28;20109;-70
2023/10/03 02:15:54;;;;;;;32.85;15.80;;;;;;;;;;5023882;28;20050;-71
2023/10/03 02:18:21;;;;;;;31.23;15.27;;;;;;;;;;5022287;28;20073;-70
2023/10/03 02:20:52;;;;;;;36.33;16.27;;;;;;;;;;5024342;28;20058;-70
2023/10/03 02:23:23;;;;;;;32.05;15.25;;;;;;;;;;5024824;28;20058;-70
2023/10/03 02:25:51;;;;;;;32.70;16.02;;;;;;;;;;5024152;28;20054;-70
2023/10/03 02:28:18;;;;;;;35.28;17.23;;;;;;;;;;5028322;28;20058;-70
2023/10/03 02:30:47;;;;;;;30.25;16.17;;;;;;;;;;5026918;28;20137;-70
2023/10/03 02:33:14;;;;;;;30.30;15.15;;;;;;;;;;5026717;28;20054;-70
2023/10/03 02:35:45;;;;;;;36.00;15.55;;;;;;;;;;5026530;28;20120;-70
2023/10/03 02:38:29;;;;;;;;;;;;;;;;;;5027135;28;20169;-70
2023/10/03 02:40:59;;;;;;;30.73;14.57;;;;;;;;;;5026150;28;43416;-70
2023/10/03 02:43:27;;;;;;;32.70;15.68;;;;;;;;;;5026498;28;20058;-71
2023/10/03 02:45:54;;;;;;;28.88;13.60;;;;;;;;;;5026103;28;20060;-70
2023/10/03 02:48:21;;;;;;;31.17;14.77;;;;;;;;;;5024382;28;20064;-70
2023/10/03 02:50:50;;;;;;;33.17;15.30;;;;;;;;;;5025796;28;20060;-71
2023/10/03 02:53:20;;;;;;;30.55;14.85;;;;;;;;;;5026681;28;20049;-70
2023/10/03 02:55:49;;;;;;;35.17;14.80;;;;;;;;;;5007185;28;20528;-70
2023/10/03 02:58:22;;;;;;;33.00;14.57;;;;;;;;;;5011880;28;20082;-70
2023/10/03 03:00:55;;;;;;;33.20;16.38;;;;;;;;;;5027111;28;20586;-70
2023/10/03 03:03:23;;;;;;;31.05;14.80;;;;;;;;;;5025067;28;20142;-70
2023/10/03 03:05:50;;;;;;;29.98;14.70;;;;;;;;;;5024515;28;20057;-70
2023/10/03 03:10:51;;;;;;;29.35;13.90;;;;;;;;;;5026356;28;20050;-70
2023/10/03 03:13:18;;;;;;;29.90;12.85;;;;;;;;;;5026992;28;20061;-70
2023/10/03 03:15:59;;;;;;;29.45;13.45;;;;;;;;;;5025570;28;20054;-70
2023/10/03 03:18:49;;;;;;;33.30;14.98;;;;;;;;;;5024834;28;20165;-71
2023/10/03 03:21:20;;;;;;;27.38;12.88;;;;;;;;;;5017112;28;20050;-70
2023/10/03 03:23:57;;;;;;;28.02;13.93;;;;;;;;;;5025696;28;20054;-71
2023/10/03 03:26:36;;;;;;;31.90;13.93;;;;;;;;;;5026574;28;20061;-70
2023/10/03 03:29:20;;;;;;;26.98;13.25;;;;;;;;;;5025407;28;20058;-71
2023/10/03 03:31:52;;;;;;;23.98;11.95;;;;;;;;;;5026679;28;20053;-70
2023/10/03 03:34:19;;;;;;;24.70;11.85;;;;;;;;;;5040950;28;20487;-71
2023/10/03 03:36:46;;;;;;;25.17;11.93;;;;;;;;;;5025596;28;20792;-69
2023/10/03 03:39:20;;;;;;;30.73;11.85;;;;;;;;;;5024012;28;20133;-70
2023/10/03 03:41:48;;;;;;;28.00;12.63;;;;;;;;;;5024493;28;21012;-70
2023/10/03 03:44:18;;;;;;;25.95;11.18;;;;;;;;;;5024671;28;20201;-70
2023/10/03 03:46:45;;;;;;;23.20;10.55;;;;;;;;;;5025469;28;20050;-69
2023/10/03 03:49:18;;;;;;;25.52;11.25;;;;;;;;;;5025101;28;20062;-70
2023/10/03 03:51:45;;;;;;;22.42;11.15;;;;;;;;;;5026164;28;20584;-71
2023/10/03 03:54:12;;;;;;;26.48;11.73;;;;;;;;;;5025424;28;20586;-70
2023/10/03 03:56:40;;;;;;;20.73;10.63;;;;;;;;;;5026152;28;20054;-71
2023/10/03 03:59:08;;;;;;;22.92;10.93;;;;;;;;;;5025665;28;20448;-70
2023/10/03 04:01:34;;;;;;;20.67;9.40;;;;;;;;;;5024472;28;20057;-69
2023/10/03 04:04:03;;;;;;;22.83;9.63;;;;;;;;;;5025507;28;20164;-70
2023/10/03 04:06:29;;;;;;;19.95;9.68;;;;;;;;;;5024320;28;20061;-71
2023/10/03 04:08:56;;;;;;;24.90;9.40;;;;;;;;;;5025329;28;20115;-70
2023/10/03 04:11:34;;;;;;;18.60;8.38;;;;;;;;;;5025505;28;20114;-70
2023/10/03 04:14:04;;;;;;;16.30;7.38;;;;;;;;;;5025447;28;20057;-71
2023/10/03 04:16:38;;;;;;;18.30;7.45;;;;;;;;;;5024776;28;20054;-70
2023/10/03 04:19:06;;;;;;;26.85;7.78;;;;;;;;;;5022809;28;20054;-70
2023/10/03 04:21:33;;;;;;;13.27;5.70;;;;;;;;;;5024798;28;20093;-69
2023/10/03 04:23:59;;;;;;;21.25;6.13;;;;;;;;;;5025079;28;20058;-69
2023/10/03 04:26:26;;;;;;;20.00;7.10;;;;;;;;;;5025233;28;20133;-69
2023/10/03 04:28:53;;;;;;;19.33;6.32;;;;;;;;;;5021968;28;20057;-71
2023/10/03 04:31:19;;;;;;;18.67;6.60;;;;;;;;;;5021255;28;21663;-70
2023/10/03 04:33:46;;;;;;;16.90;6.43;;;;;;;;;;5022724;28;20531;-71
2023/10/03 04:36:14;;;;;;;20.00;7.30;;;;;;;;;;5025263;28;20057;-70
2023/10/03 04:38:42;;;;;;;16.83;7.38;;;;;;;;;;5024891;28;20045;-70
2023/10/03 04:41:09;;;;;;;14.13;6.28;;;;;;;;;;5025207;28;20061;-70
2023/10/03 04:43:36;;;;;;;14.23;6.25;;;;;;;;;;5025124;28;20136;-69
2023/10/03 04:46:04;;;;;;;17.85;6.40;;;;;;;;;;5024483;28;20057;-70
2023/10/03 04:48:31;;;;;;;13.30;5.95;;;;;;;;;;5022265;28;20064;-70
2023/10/03 04:50:59;;;;;;;13.57;6.22;;;;;;;;;;5024406;28;20054;-70
2023/10/03 04:53:26;;;;;;;16.17;7.05;;;;;;;;;;5024692;28;20046;-70
2023/10/03 04:55:52;;;;;;;17.08;6.80;;;;;;;;;;5024492;28;20060;-70
2023/10/03 04:58:19;;;;;;;18.52;6.35;;;;;;;;;;5021937;28;20057;-71
2023/10/03 05:00:48;;;;;;;14.35;6.03;;;;;;;;;;5024246;28;21089;-69
2023/10/03 05:03:14;;;;;;;18.17;6.05;;;;;;;;;;5023116;28;20576;-69
2023/10/03 05:05:41;;;;;;;16.23;6.55;;;;;;;;;;5024679;28;20512;-70
2023/10/03 05:08:07;;;;;;;13.82;5.85;;;;;;;;;;5025101;28;20088;-70
2023/10/03 05:10:36;;;;;;;20.10;6.78;;;;;;;;;;5025622;28;20050;-69
2023/10/03 05:13:05;;;;;;;16.40;5.97;;;;;;;;;;5024885;28;20054;-70
2023/10/03 05:15:32;;;;;;;19.23;6.35;;;;;;;;;;4991792;28;20479;-70
2023/10/03 05:18:00;;;;;;;17.30;5.68;;;;;;;;;;5012635;28;20116;-70
2023/10/03 05:20:37;;;;;;;9.93;5.05;;;;;;;;;;5025002;28;20211;-71
2023/10/03 05:23:04;;;;;;;16.58;5.80;;;;;;;;;;5007065;28;20053;-70
2023/10/03 05:25:36;;;;;;;14.27;5.72;;;;;;;;;;5024175;28;20184;-70
2023/10/03 05:28:04;;;;;;;13.13;5.15;;;;;;;;;;5024495;28;20480;-70
2023/10/03 05:30:33;;;;;;;11.18;5.13;;;;;;;;;;5023317;28;20350;-70
2023/10/03 05:33:00;;;;;;;14.25;5.65;;;;;;;;;;5024327;28;20074;-70
2023/10/03 05:35:26;;;;;;;13.55;5.10;;;;;;;;;;5019700;28;20058;-70
2023/10/03 05:37:53;;;;;;;10.38;4.40;;;;;;;;;;5005172;28;20105;-69
2023/10/03 05:40:20;;;;;;;8.65;4.57;;;;;;;;;;5004866;28;20595;-70
2023/10/03 05:42:47;;;;;;;14.35;4.35;;;;;;;;;;5018965;28;20058;-70
2023/10/03 05:45:18;;;;;;;11.40;4.28;;;;;;;;;;5024134;28;20115;-70
2023/10/03 05:47:45;;;;;;;10.38;4.43;;;;;;;;;;5023863;28;20931;-70
2023/10/03 05:50:14;;;;;;;9.57;3.55;;;;;;;;;;5021450;28;20583;-70
2023/10/03 05:52:43;;;;;;;11.65;4.00;;;;;;;;;;5020155;28;20050;-69
2023/10/03 05:55:10;;;;;;;13.88;4.68;;;;;;;;;;5021491;28;20053;-69
2023/10/03 05:57:39;;;;;;;12.57;4.22;;;;;;;;;;5023973;28;20049;-69
2023/10/03 06:00:08;;;;;;;15.40;4.72;;;;;;;;;;5017702;28;20077;-68
2023/10/03 06:02:39;;;;;;;11.57;4.13;;;;;;;;;;5022147;28;20054;-69
2023/10/03 06:05:06;;;;;;;9.55;4.05;;;;;;;;;;5022802;28;20050;-69
2023/10/03 06:07:33;;;;;;;8.48;4.28;;;;;;;;;;5023585;28;20929;-69
2023/10/03 06:09:59;;;;;;;9.48;3.65;;;;;;;;;;5007200;28;20711;-69
2023/10/03 06:12:28;;;;;;;14.02;3.85;;;;;;;;;;5023394;28;20050;-71
2023/10/03 06:14:55;;;;;;;12.15;5.10;;;;;;;;;;5023048;28;20374;-69
2023/10/03 06:17:21;;;;;;;8.80;3.85;;;;;;;;;;5035568;28;20879;-70
2023/10/03 06:19:50;;;;;;;11.02;3.78;;;;;;;;;;5023351;28;20587;-71
2023/10/03 06:22:17;;;;;;;16.30;5.10;;;;;;;;;;5021130;28;20058;-69
2023/10/03 06:24:45;;;;;;;7.68;3.63;;;;;;;;;;5022449;28;20334;-69
2023/10/03 06:27:11;;;;;;;10.68;3.95;;;;;;;;;;5022495;28;20061;-70
2023/10/03 06:29:41;;;;;;;11.80;4.47;;;;;;;;;;5005219;28;20061;-70
2023/10/03 06:32:08;;;;;;;6.47;3.50;;;;;;;;;;5023021;28;20065;-70
2023/10/03 06:34:34;;;;;;;8.80;3.60;;;;;;;;;;5023123;28;20108;-71
2023/10/03 06:37:02;;;;;;;12.15;3.92;;;;;;;;;;5023578;28;20113;-71
2023/10/03 06:39:29;;;;;;;12.95;4.18;;;;;;;;;;5023161;28;20877;-70
2023/10/03 06:41:56;;;;;;;11.02;4.45;;;;;;;;;;5023408;28;20054;-70
2023/10/03 06:44:22;;;;;;;10.05;3.47;;;;;;;;;;5022776;28;20586;-72
2023/10/03 06:46:49;;;;;;;15.02;5.30;;;;;;;;;;5016950;28;20513;-70
2023/10/03 06:49:17;;;;;;;8.75;3.33;;;;;;;;;;5021310;28;20084;-71
2023/10/03 06:51:47;;;;;;;11.77;3.53;;;;;;;;;;5022102;28;20085;-68
2023/10/03 06:54:14;;;;;;;10.55;3.38;;;;;;;;;;5021390;28;20054;-68
2023/10/03 06:56:41;;;;;;;8.38;3.25;;;;;;;;;;5022160;28;20057;-68
2023/10/03 06:59:10;;;;;;;5.80;2.47;;;;;;;;;;5020778;28;20053;-70
2023/10/03 07:01:38;;;;;;;9.63;2.50;;;;;;;;;;5022139;28;20244;-69
2023/10/03 07:04:06;;;;;;;5.00;2.55;;;;;;;;;;5023556;28;20064;-69
2023/10/03 07:06:34;;;;;;;9.23;2.88;;;;;;;;;;5022289;28;20046;-69
2023/10/03 07:09:01;;;;;;;7.72;2.70;;;;;;;;;;5023027;28;20594;-69
2023/10/03 07:11:28;;;;;;;6.07;2.28;;;;;;;;;;5022519;28;20149;-70
2023/10/03 07:13:55;;;;;;;6.18;2.75;;;;;;;;;;5026397;28;20105;-69
2023/10/03 07:16:21;;;;;;;8.70;3.10;;;;;;;;;;5022093;28;20141;-69
2023/10/03 07:18:48;;;;;;;8.68;2.55;;;;;;;;;;5019972;28;20046;-68
2023/10/03 07:21:18;;;;;;;10.23;2.88;;;;;;;;;;5023557;28;20626;-68
2023/10/03 07:23:45;;;;;;;5.63;2.15;;;;;;;;;;5024269;28;20053;-69
2023/10/03 07:26:12;;;;;;;8.30;2.03;;;;;;;;;;5005840;28;20054;-69
2023/10/03 07:28:40;;;;;;;7.55;2.58;;;;;;;;;;5006159;28;20129;-69
2023/10/03 07:31:14;;;;;;;4.70;2.25;;;;;;;;;;5008363;28;20059;-70
2023/10/03 07:33:43;;;;;;;4.70;1.83;;;;;;;;;;5025899;28;20061;-71
2023/10/03 07:36:11;;;;;;;8.88;2.05;;;;;;;;;;5025455;28;20050;-70
2023/10/03 07:38:37;;;;;;;6.55;2.15;;;;;;;;;;5026275;28;20050;-68
2023/10/03 07:41:10;;;;;;;6.47;2.35;;;;;;;;;;5025095;28;20046;-68
2023/10/03 07:43:37;;;;;;;6.28;2.25;;;;;;;;;;5025566;28;20054;-70
2023/10/03 07:46:04;;;;;;;8.38;2.55;;;;;;;;;;5028753;28;20053;-69
2023/10/03 07:48:30;;;;;;;5.95;2.15;;;;;;;;;;5025234;28;20447;-69
2023/10/03 07:50:57;;;;;;;5.78;1.98;;;;;;;;;;5025647;28;20184;-69
2023/10/03 07:53:23;;;;;;;6.90;2.38;;;;;;;;;;5025193;28;20112;-69
2023/10/03 07:55:50;;;;;;;10.88;2.00;;;;;;;;;;5023399;28;20054;-68
2023/10/03 07:58:20;;;;;;;3.65;1.45;;;;;;;;;;5007970;28;20050;-68
2023/10/03 08:00:46;;;;;;;4.10;1.25;;;;;;;;;;5024754;28;20558;-68
2023/10/03 08:03:13;;;;;;;5.90;1.40;;;;;;;;;;5025151;28;20114;-68
2023/10/03 08:05:40;;;;;;;6.95;1.52;;;;;;;;;;5023308;28;20137;-68
2023/10/03 08:08:08;;;;;;;6.68;1.52;;;;;;;;;;5024309;28;20100;-69
2023/10/03 08:10:34;;;;;;;5.65;1.25;;;;;;;;;;5014711;28;20579;-67
2023/10/03 08:13:02;;;;;;;5.70;1.55;;;;;;;;;;5024659;28;20064;-67
2023/10/03 08:15:31;;;;;;;8.63;2.17;;;;;;;;;;5025512;28;20132;-67
2023/10/03 08:17:58;;;;;;;5.97;1.70;;;;;;;;;;5025077;28;20046;-67
2023/10/03 08:20:27;;;;;;;7.93;1.80;;;;;;;;;;5024717;28;20507;-68
2023/10/03 08:22:54;;;;;;;6.35;1.60;;;;;;;;;;5024527;28;20446;-69
2023/10/03 08:25:21;;;;;;;7.10;1.85;;;;;;;;;;5023261;28;20133;-68
2023/10/03 08:27:51;;;;;;;3.53;1.65;;;;;;;;;;5007248;28;20141;-69
2023/10/03 08:30:30;;;;;;;9.73;2.03;;;;;;;;;;5024279;28;20149;-69
2023/10/03 08:33:09;;;;;;;7.45;1.67;;;;;;;;;;5019268;28;20173;-69
2023/10/03 08:35:37;;;;;;;4.30;1.10;;;;;;;;;;5022856;28;20064;-68
2023/10/03 08:38:05;;;;;;;4.65;1.17;;;;;;;;;;5024136;28;20149;-68
2023/10/03 08:40:36;;;;;;;5.82;1.83;;;;;;;;;;5023949;28;20058;-68
2023/10/03 08:43:08;;;;;;;4.68;1.20;;;;;;;;;;5024907;28;20140;-69
2023/10/03 08:45:39;;;;;;;5.50;1.65;;;;;;;;;;5023946;28;20054;-69
2023/10/03 08:48:06;;;;;;;7.07;1.88;;;;;;;;;;5024113;28;20093;-69
2023/10/03 08:50:52;;;;;;;8.80;2.08;;;;;;;;;;5023483;28;20131;-70
2023/10/03 08:53:26;;;;;;;6.72;1.58;;;;;;;;;;5027612;28;20054;-69
2023/10/03 08:56:02;;;;;;;4.80;1.40;;;;;;;;;;5035181;28;20415;-69
2023/10/03 08:58:28;;;;;;;8.20;1.35;;;;;;;;;;5022829;28;20054;-68
2023/10/03 09:01:02;;;;;;;4.80;1.48;;;;;;;;;;5024533;28;20149;-70
2023/10/03 09:03:42;;;;;;;5.82;2.03;;;;;;;;;;5023345;28;20479;-68
2023/10/03 09:06:09;;;;;;;2.20;0.90;;;;;;;;;;5023993;28;20898;-70
2023/10/03 09:08:36;;;;;;;4.35;1.20;;;;;;;;;;5023338;28;20142;-69
2023/10/03 09:11:13;;;;;;;3.08;1.40;;;;;;;;;;5024175;28;20489;-69
2023/10/03 09:13:40;;;;;;;2.38;0.90;;;;;;;;;;5020405;28;20046;-70
2023/10/03 09:16:14;;;;;;;2.80;1.00;;;;;;;;;;5024134;28;20539;-68
2023/10/03 09:18:41;;;;;;;2.75;0.88;;;;;;;;;;5024655;28;20109;-68
2023/10/03 09:21:14;;;;;;;3.00;0.80;;;;;;;;;;5006054;28;20181;-68
2023/10/03 09:24:09;;;;;;;1.27;0.57;;;;;;;;;;5023914;28;20053;-68
2023/10/03 09:26:46;;;;;;;3.22;0.80;;;;;;;;;;5024388;28;20524;-69
2023/10/03 09:29:30;;;;;;;2.25;0.88;;;;;;;;;;5006992;28;20540;-70
2023/10/03 09:32:12;;;;;;;4.85;0.90;;;;;;;;;;5041487;28;20108;-68
2023/10/03 09:34:41;;;;;;;3.35;0.75;;;;;;;;;;5023763;28;20513;-69
2023/10/03 09:37:08;;;;;;;1.58;0.77;;;;;;;;;;5023340;28;20548;-70
2023/10/03 09:39:50;;;;;;;3.20;0.88;;;;;;;;;;5024013;28;20590;-66
2023/10/03 09:42:17;;;;;;;5.32;1.60;;;;;;;;;;5011626;28;20057;-67
2023/10/03 09:44:44;;;;;;;5.72;1.42;;;;;;;;;;5023244;28;20062;-68
2023/10/03 09:47:12;;;;;;;3.15;1.00;;;;;;;;;;5021350;28;20536;-67
2023/10/03 09:49:39;;;;;;;4.55;1.13;;;;;;;;;;5022451;28;20140;-70
2023/10/03 09:52:08;;;;;;;6.65;1.30;;;;;;;;;;5022811;28;20058;-67
2023/10/03 09:54:37;;;;;;;7.65;1.45;;;;;;;;;;5024119;28;20104;-68
2023/10/03 09:57:16;;;;;;;3.92;1.15;;;;;;;;;;5006908;28;20400;-68
2023/10/03 09:59:45;;;;;;;4.28;1.20;;;;;;;;;;5023753;28;20088;-68
2023/10/03 10:02:31;;;;;;;4.03;1.23;;;;;;;;;;5023617;28;20092;-69
2023/10/03 10:05:00;;;;;;;2.88;1.00;;;;;;;;;;5016435;28;20137;-67
2023/10/03 10:07:29;;;;;;;4.15;1.13;;;;;;;;;;5023139;28;20093;-69
2023/10/03 10:10:01;;;;;;;6.28;1.13;;;;;;;;;;5006089;28;20141;-68
2023/10/03 10:12:28;;;;;;;2.00;0.80;;;;;;;;;;5024990;28;20795;-67
2023/10/03 10:15:01;;;;;;;5.15;1.13;;;;;;;;;;5024304;28;20050;-68
2023/10/03 10:17:44;;;;;;;3.55;1.15;;;;;;;;;;5023183;28;20536;-70
2023/10/03 10:20:12;;;;;;;2.72;1.05;;;;;;;;;;5023697;28;20054;-67
2023/10/03 10:25:56;;;;;;;4.03;0.85;;;;;;;;;;5021515;28;20050;-68
2023/10/03 10:28:26;;;;;;;3.40;1.20;;;;;;;;;;5022961;28;20501;-68
2023/10/03 10:31:11;;;;;;;3.25;1.10;;;;;;;;;;5023075;28;20056;-68
2023/10/03 10:33:38;;;;;;;3.92;1.00;;;;;;;;;;5023030;28;20887;-69
2023/10/03 10:36:12;;;;;;;6.10;1.35;;;;;;;;;;5023081;28;20072;-67
2023/10/03 10:38:41;;;;;;;6.70;0.98;;;;;;;;;;5023125;28;20054;-67
2023/10/03 10:41:29;;;;;;;2.95;1.00;;;;;;;;;;5023047;28;20062;-68
2023/10/03 10:44:08;;;;;;;5.57;1.00;;;;;;;;;;5022749;28;20165;-68
2023/10/03 10:46:37;;;;;;;4.15;0.90;;;;;;;;;;5022985;28;20949;-67
2023/10/03 10:49:06;;;;;;;2.42;1.33;;;;;;;;;;5026461;28;20145;-67
2023/10/03 10:51:34;;;;;;;3.17;1.23;;;;;;;;;;5026192;28;20049;-68
2023/10/03 10:54:02;;;;;;;4.70;1.10;;;;;;;;;;5026380;28;20180;-68
2023/10/03 10:56:28;;;;;;;5.10;2.15;;;;;;;;;;5025353;28;20124;-68
2023/10/03 10:59:04;;;;;;;6.55;1.33;;;;;;;;;;5023492;28;20050;-68
2023/10/03 11:01:37;;;;;;;3.80;1.52;;;;;;;;;;5022492;28;20145;-69
2023/10/03 11:04:04;;;;;;;4.43;1.40;;;;;;;;;;5019483;28;20058;-69
2023/10/03 11:06:31;;;;;;;6.38;1.55;;;;;;;;;;5025698;28;20493;-69
2023/10/03 11:08:58;;;;;;;6.13;1.50;;;;;;;;;;5025091;28;20057;-68
2023/10/03 11:11:32;;;;;;;3.80;1.85;;;;;;;;;;5021081;28;20042;-67
2023/10/03 11:13:59;;;;;;;5.75;1.58;;;;;;;;;;5028882;28;20064;-67
2023/10/03 11:16:27;;;;;;;11.95;2.85;;;;;;;;;;5025980;28;20141;-67
2023/10/03 11:18:55;;;;;;;4.13;2.05;;;;;;;;;;5021252;28;20050;-67
2023/10/03 11:21:25;;;;;;;5.57;1.40;;;;;;;;;;5006722;28;20058;-67
2023/10/03 11:24:10;;;;;;;5.35;1.35;;;;;;;;;;5026098;28;20049;-67
2023/10/03 11:26:48;;;;;;;5.80;1.83;;;;;;;;;;5022756;28;20058;-67
2023/10/03 11:29:33;;;;;;;5.47;1.60;;;;;;;;;;5022877;28;20054;-70
2023/10/03 11:32:01;;;;;;;6.43;1.70;;;;;;;;;;5025534;28;20812;-68
2023/10/03 11:34:28;;;;;;;4.55;1.42;;;;;;;;;;5025392;28;20137;-68
2023/10/03 11:36:55;;;;;;;4.32;1.73;;;;;;;;;;5020003;28;20054;-67
2023/10/03 11:39:26;;;;;;;2.30;1.35;;;;;;;;;;5020865;28;20058;-69
2023/10/03 11:41:52;;;;;;;6.50;1.85;;;;;;;;;;5025852;28;20057;-67
2023/10/03 11:44:22;;;;;;;7.93;1.95;;;;;;;;;;5025458;28;20608;-67
2023/10/03 11:46:49;;;;;;;7.10;2.38;;;;;;;;;;5025565;28;20181;-68
2023/10/03 11:49:15;;;;;;;9.35;2.28;;;;;;;;;;5024655;28;20057;-66
2023/10/03 11:51:44;;;;;;;6.35;2.22;;;;;;;;;;5025365;28;20088;-69
2023/10/03 11:54:14;;;;;;;3.97;1.80;;;;;;;;;;5025292;28;20082;-66
2023/10/03 11:56:41;;;;;;;6.78;1.98;;;;;;;;;;5025027;28;20054;-68
2023/10/03 11:59:09;;;;;;;5.25;1.80;;;;;;;;;;5024967;28;20120;-65
2023/10/03 12:01:36;;;;;;;6.18;1.83;;;;;;;;;;5024994;28;20057;-67
2023/10/03 12:04:03;;;;;;;4.55;1.63;;;;;;;;;;5025087;28;20125;-69
2023/10/03 12:06:30;;;;;;;5.32;2.13;;;;;;;;;;5024551;28;20521;-70
2023/10/03 12:08:58;;;;;;;5.90;2.20;;;;;;;;;;5024409;28;20065;-68
2023/10/03 12:11:27;;;;;;;3.97;1.73;;;;;;;;;;5014371;28;20054;-65
2023/10/03 12:13:54;;;;;;;6.85;2.10;;;;;;;;;;5024441;28;20513;-66
2023/10/03 12:16:20;;;;;;;9.52;2.50;;;;;;;;;;5024924;28;20470;-66
2023/10/03 12:18:47;;;;;;;8.45;2.55;;;;;;;;;;5024522;28;20522;-67
2023/10/03 12:21:14;;;;;;;9.50;2.35;;;;;;;;;;5024572;28;20065;-67
2023/10/03 12:23:40;;;;;;;7.00;2.30;;;;;;;;;;5024033;28;20954;-70
2023/10/03 12:26:07;;;;;;;10.02;2.28;;;;;;;;;;5024586;28;20085;-68
2023/10/03 12:28:52;;;;;;;7.95;2.78;;;;;;;;;;5025347;28;20058;-67
2023/10/03 12:31:27;;;;;;;7.65;2.33;;;;;;;;;;5024747;28;20675;-67
2023/10/03 12:33:55;;;;;;;8.32;2.17;;;;;;;;;;5024975;28;20058;-68
2023/10/03 12:36:22;;;;;;;8.25;2.00;;;;;;;;;;5024635;28;20054;-66
2023/10/03 12:38:48;;;;;;;8.32;2.58;;;;;;;;;;5025457;28;20579;-67
2023/10/03 12:41:15;;;;;;;7.93;2.35;;;;;;;;;;5024874;28;20057;-67
2023/10/03 12:43:46;;;;;;;6.63;2.50;;;;;;;;;;5024273;28;20128;-66
2023/10/03 12:46:13;;;;;;;6.97;2.17;;;;;;;;;;5024397;28;20050;-67
2023/10/03 12:48:40;;;;;;;6.45;2.53;;;;;;;;;;5025627;28;20058;-68
2023/10/03 12:51:08;;;;;;;8.45;2.60;;;;;;;;;;5008231;28;20054;-67
2023/10/03 12:53:37;;;;;;;9.57;2.58;;;;;;;;;;5025941;28;20133;-68
2023/10/03 12:56:08;;;;;;;6.50;2.28;;;;;;;;;;5026810;28;20133;-69
2023/10/03 12:58:35;;;;;;;9.48;2.67;;;;;;;;;;5006825;28;20062;-69
2023/10/03 13:01:03;;;;;;;8.60;2.22;;;;;;;;;;5024961;28;20136;-68
2023/10/03 13:03:32;;;;;;;12.05;2.42;;;;;;;;;;5024049;28;20081;-68
2023/10/03 13:06:00;;;;;;;11.93;3.55;;;;;;;;;;5023513;28;20049;-67
2023/10/03 13:08:27;;;;;;;8.38;2.47;;;;;;;;;;5023552;28;20147;-66
2023/10/03 13:11:01;;;;;;;6.43;2.10;;;;;;;;;;5023639;28;20060;-66
2023/10/03 13:13:28;;;;;;;5.60;2.17;;;;;;;;;;5024525;28;20064;-67
2023/10/03 13:15:54;;;;;;;9.63;2.50;;;;;;;;;;5024226;28;20519;-68
2023/10/03 13:18:23;;;;;;;6.90;2.25;;;;;;;;;;5007442;28;20050;-68
2023/10/03 13:20:52;;;;;;;9.05;2.35;;;;;;;;;;5023628;28;20141;-67
2023/10/03 13:23:19;;;;;;;6.50;1.85;;;;;;;;;;5024122;28;20065;-68
2023/10/03 13:25:46;;;;;;;5.68;2.13;;;;;;;;;;5024234;28;20104;-67
2023/10/03 13:28:13;;;;;;;6.70;1.85;;;;;;;;;;5023307;28;20050;-67
2023/10/03 13:30:40;;;;;;;10.88;2.10;;;;;;;;;;5022582;28;20057;-67
2023/10/03 13:33:06;;;;;;;7.13;1.83;;;;;;;;;;5023910;28;20049;-69
2023/10/03 13:35:33;;;;;;;7.30;1.63;;;;;;;;;;5023736;28;20101;-67
2023/10/03 13:38:00;;;;;;;7.45;2.15;;;;;;;;;;5023723;28;20056;-67
2023/10/03 13:40:27;;;;;;;4.90;2.22;;;;;;;;;;5024051;28;20287;-68
2023/10/03 13:42:54;;;;;;;6.63;2.42;;;;;;;;;;5023763;28;20065;-69
2023/10/03 13:45:21;;;;;;;6.53;1.73;;;;;;;;;;5023366;28;20061;-65
2023/10/03 13:47:49;;;;;;;7.63;1.90;;;;;;;;;;5023155;28;20539;-67
2023/10/03 13:50:17;;;;;;;4.22;1.50;;;;;;;;;;5022653;28;20082;-68
2023/10/03 13:52:46;;;;;;;4.95;1.73;;;;;;;;;;5023646;28;20046;-70
2023/10/03 13:55:14;;;;;;;7.55;2.35;;;;;;;;;;5023058;28;20053;-70
2023/10/03 13:57:41;;;;;;;5.70;1.92;;;;;;;;;;5020887;28;20076;-69
2023/10/03 14:00:12;;;;;;;5.35;1.58;;;;;;;;;;5018621;28;20061;-69
2023/10/03 14:02:44;;;;;;;6.22;1.75;;;;;;;;;;5023580;28;20057;-70
2023/10/03 14:05:11;;;;;;;3.75;1.70;;;;;;;;;;5023106;28;20045;-69
2023/10/03 14:07:38;;;;;;;3.38;1.60;;;;;;;;;;5022978;28;20183;-70
2023/10/03 14:10:09;;;;;;;7.55;2.00;;;;;;;;;;5023285;28;20054;-68
2023/10/03 14:12:36;;;;;;;7.82;2.17;;;;;;;;;;5022835;28;20049;-69
2023/10/03 14:15:03;;;;;;;8.25;2.15;;;;;;;;;;5023447;28;20054;-68
2023/10/03 14:17:30;;;;;;;7.03;2.08;;;;;;;;;;5022223;28;20054;-69
2023/10/03 14:19:56;;;;;;;9.25;2.35;;;;;;;;;;5022962;28;20112;-69
2023/10/03 14:22:23;;;;;;;6.32;1.98;;;;;;;;;;5022957;28;20203;-69
2023/10/03 14:24:50;;;;;;;5.93;1.70;;;;;;;;;;5025073;28;20105;-69
2023/10/03 14:27:16;;;;;;;5.32;2.03;;;;;;;;;;5014885;28;20058;-67
2023/10/03 14:29:43;;;;;;;4.47;1.80;;;;;;;;;;5025112;28;20173;-69
2023/10/03 14:32:10;;;;;;;7.35;1.90;;;;;;;;;;5024284;28;20088;-68
2023/10/03 14:34:41;;;;;;;7.43;1.90;;;;;;;;;;5025129;28;20081;-68
2023/10/03 14:37:09;;;;;;;6.97;1.90;;;;;;;;;;5024929;28;20050;-70
2023/10/03 14:39:36;;;;;;;2.08;1.33;;;;;;;;;;5011141;28;20081;-67
2023/10/03 14:42:02;;;;;;;5.10;2.00;;;;;;;;;;5012898;28;20148;-69
2023/10/03 14:44:30;;;;;;;4.38;1.98;;;;;;;;;;5024278;28;20046;-70
2023/10/03 14:46:57;;;;;;;3.80;1.73;;;;;;;;;;5019986;28;20095;-68
2023/10/03 14:49:24;;;;;;;8.88;1.55;;;;;;;;;;5022625;28;20061;-69